createdAt,value
2016-06-27T00:00:14.901Z,1012.12
2016-06-27T00:01:14.926Z,1012.14
2016-06-27T00:03:14.977Z,1012.19
2016-06-27T00:04:15.001Z,1012.2
2016-06-27T00:05:15.030Z,1012.2
2016-06-27T00:06:15.052Z,1012.2
2016-06-27T00:07:15.074Z,1012.18
2016-06-27T00:08:15.099Z,1012.18
2016-06-27T00:09:15.128Z,1012.17
2016-06-27T00:10:15.150Z,1012.16
2016-06-27T00:11:15.176Z,1012.11
2016-06-27T00:12:15.199Z,1012.12
2016-06-27T00:13:15.225Z,1012.08
2016-06-27T00:14:15.256Z,1012.08
2016-06-27T00:15:15.271Z,1012.08
2016-06-27T00:16:15.296Z,1012.1
2016-06-27T00:17:15.319Z,1012.09
2016-06-27T00:19:15.375Z,1012.1
2016-06-27T00:20:15.395Z,1012.08
2016-06-27T00:21:15.422Z,1012.1
2016-06-27T00:22:15.448Z,1012.08
2016-06-27T00:23:15.474Z,1012.07
2016-06-27T00:24:15.494Z,1012.06
2016-06-27T00:25:15.524Z,1012.06
2016-06-27T00:26:15.550Z,1012.07
2016-06-27T00:27:15.573Z,1012.07
2016-06-27T00:28:15.595Z,1012.03
2016-06-27T00:29:15.617Z,1012.09
2016-06-27T00:30:15.649Z,1012.1
2016-06-27T00:31:15.667Z,1012.13
2016-06-27T00:32:15.694Z,1012.13
2016-06-27T00:33:15.717Z,1012.14
2016-06-27T00:35:15.769Z,1012.07
2016-06-27T00:36:15.799Z,1012.14
2016-06-27T00:37:15.818Z,1012.14
2016-06-27T00:38:15.845Z,1012.17
2016-06-27T00:39:15.872Z,1012.13
2016-06-27T00:40:15.896Z,1012.12
2016-06-27T00:41:15.915Z,1012.12
2016-06-27T00:42:15.944Z,1012.1
2016-06-27T00:43:15.970Z,1012.13
2016-06-27T00:44:15.992Z,1012.13
2016-06-27T00:45:16.016Z,1012.1
2016-06-27T00:46:16.046Z,1012.05
2016-06-27T00:47:16.070Z,1012.07
2016-06-27T00:48:16.090Z,1012.08
2016-06-27T00:50:16.140Z,1012.13
2016-06-27T00:51:16.165Z,1012.1
2016-06-27T00:52:16.189Z,1012.09
2016-06-27T00:53:16.215Z,1012.11
2016-06-27T00:54:16.241Z,1012.07
2016-06-27T00:55:16.266Z,1012.05
2016-06-27T00:56:16.290Z,1012.07
2016-06-27T00:57:16.319Z,1012.06
2016-06-27T00:58:16.339Z,1012.07
2016-06-27T00:59:16.363Z,1012.07
2016-06-27T01:00:16.395Z,1012.05
2016-06-27T01:01:16.420Z,1012.03
2016-06-27T01:02:16.440Z,1012.06
2016-06-27T01:03:16.464Z,1012.06
2016-06-27T01:04:16.487Z,1012.06
2016-06-27T01:05:16.514Z,1012.01
2016-06-27T01:06:16.539Z,1012
2016-06-27T01:07:16.569Z,1011.98
2016-06-27T01:08:16.591Z,1011.97
2016-06-27T01:09:16.614Z,1012
2016-06-27T01:10:16.642Z,1011.99
2016-06-27T01:11:16.665Z,1012
2016-06-27T01:12:16.687Z,1012.01
2016-06-27T01:13:16.710Z,1012.01
2016-06-27T01:14:16.735Z,1012.01
2016-06-27T01:15:16.760Z,1011.97
2016-06-27T01:16:16.787Z,1011.97
2016-06-27T01:17:16.813Z,1011.95
2016-06-27T01:18:16.831Z,1011.97
2016-06-27T01:19:16.863Z,1011.97
2016-06-27T01:20:16.894Z,1011.98
2016-06-27T01:22:16.931Z,1011.95
2016-06-27T01:23:16.962Z,1011.95
2016-06-27T01:24:16.984Z,1011.93
2016-06-27T01:25:17.019Z,1011.91
2016-06-27T01:26:17.057Z,1011.88
2016-06-27T01:27:17.073Z,1011.83
2016-06-27T01:28:17.078Z,1011.88
2016-06-27T01:29:17.108Z,1011.92
2016-06-27T01:30:17.138Z,1011.88
2016-06-27T01:31:17.156Z,1011.9
2016-06-27T01:32:17.177Z,1011.88
2016-06-27T01:33:17.208Z,1011.89
2016-06-27T01:34:17.229Z,1011.89
2016-06-27T01:35:17.253Z,1011.93
2016-06-27T01:36:17.278Z,1011.91
2016-06-27T01:38:17.334Z,1011.94
2016-06-27T01:39:17.355Z,1011.94
2016-06-27T01:40:17.376Z,1011.98
2016-06-27T01:41:17.404Z,1011.99
2016-06-27T01:42:17.427Z,1012.03
2016-06-27T01:43:17.450Z,1012.09
2016-06-27T01:44:17.477Z,1012.1
2016-06-27T01:45:17.504Z,1012.1
2016-06-27T01:46:17.522Z,1012.13
2016-06-27T01:47:17.549Z,1012.13
2016-06-27T01:48:17.577Z,1012.15
2016-06-27T01:49:17.606Z,1012.15
2016-06-27T01:50:17.626Z,1012.15
2016-06-27T01:51:17.650Z,1012.12
2016-06-27T01:52:17.672Z,1012.16
2016-06-27T01:54:17.721Z,1012.12
2016-06-27T01:55:17.748Z,1012.12
2016-06-27T01:56:17.774Z,1012.09
2016-06-27T01:57:17.798Z,1012.14
2016-06-27T01:58:17.821Z,1012.12
2016-06-27T01:59:17.849Z,1012.12
2016-06-27T02:00:17.866Z,1012.11
2016-06-27T02:01:17.896Z,1012.14
2016-06-27T02:02:17.917Z,1012.16
2016-06-27T02:03:17.949Z,1012.18
2016-06-27T02:04:17.971Z,1012.16
2016-06-27T02:05:17.995Z,1012.22
2016-06-27T02:06:18.016Z,1012.24
2016-06-27T02:07:18.046Z,1012.28
2016-06-27T02:08:18.071Z,1012.3
2016-06-27T02:10:18.120Z,1012.35
2016-06-27T02:11:18.143Z,1012.39
2016-06-27T02:12:18.164Z,1012.38
2016-06-27T02:13:18.193Z,1012.38
2016-06-27T02:14:18.218Z,1012.36
2016-06-27T02:15:18.239Z,1012.39
2016-06-27T02:16:18.264Z,1012.36
2016-06-27T02:17:18.288Z,1012.39
2016-06-27T02:18:18.312Z,1012.38
2016-06-27T02:19:18.339Z,1012.37
2016-06-27T02:20:18.365Z,1012.35
2016-06-27T02:21:18.387Z,1012.36
2016-06-27T02:22:18.411Z,1012.35
2016-06-27T02:23:18.440Z,1012.35
2016-06-27T02:25:18.494Z,1012.29
2016-06-27T02:26:18.509Z,1012.28
2016-06-27T02:27:18.535Z,1012.26
2016-06-27T02:28:18.565Z,1012.29
2016-06-27T02:29:18.584Z,1012.34
2016-06-27T02:30:18.607Z,1012.34
2016-06-27T02:31:18.649Z,1012.33
2016-06-27T02:32:18.665Z,1012.34
2016-06-27T02:33:18.682Z,1012.39
2016-06-27T02:34:18.712Z,1012.4
2016-06-27T02:35:18.736Z,1012.44
2016-06-27T02:36:18.757Z,1012.49
2016-06-27T02:37:18.779Z,1012.5
2016-06-27T02:38:18.809Z,1012.55
2016-06-27T02:39:18.833Z,1012.56
2016-06-27T02:40:18.860Z,1012.59
2016-06-27T02:41:18.881Z,1012.61
2016-06-27T02:42:18.907Z,1012.57
2016-06-27T02:43:18.931Z,1012.57
2016-06-27T02:44:18.957Z,1012.57
2016-06-27T02:45:18.976Z,1012.49
2016-06-27T02:46:19.005Z,1012.5
2016-06-27T02:47:19.028Z,1012.51
2016-06-27T02:48:19.066Z,1012.48
2016-06-27T02:49:19.075Z,1012.51
2016-06-27T02:50:19.103Z,1012.5
2016-06-27T02:51:19.127Z,1012.51
2016-06-27T02:52:19.151Z,1012.5
2016-06-27T02:53:19.173Z,1012.48
2016-06-27T02:54:19.201Z,1012.48
2016-06-27T02:55:19.225Z,1012.49
2016-06-27T02:57:19.289Z,1012.56
2016-06-27T02:58:19.302Z,1012.53
2016-06-27T02:59:19.324Z,1012.57
2016-06-27T03:00:19.347Z,1012.56
2016-06-27T03:01:19.378Z,1012.5
2016-06-27T03:02:19.403Z,1012.47
2016-06-27T03:03:19.429Z,1012.47
2016-06-27T03:04:19.448Z,1012.5
2016-06-27T03:05:19.473Z,1012.48
2016-06-27T03:06:19.499Z,1012.49
2016-06-27T03:07:19.524Z,1012.46
2016-06-27T03:08:19.547Z,1012.5
2016-06-27T03:09:19.574Z,1012.46
2016-06-27T03:10:19.597Z,1012.47
2016-06-27T03:11:19.619Z,1012.53
2016-06-27T03:13:19.666Z,1012.49
2016-06-27T03:14:19.694Z,1012.45
2016-06-27T03:15:19.720Z,1012.44
2016-06-27T03:16:19.744Z,1012.43
2016-06-27T03:17:19.773Z,1012.42
2016-06-27T03:18:19.790Z,1012.42
2016-06-27T03:19:19.818Z,1012.48
2016-06-27T03:20:19.840Z,1012.48
2016-06-27T03:21:19.870Z,1012.48
2016-06-27T03:22:19.892Z,1012.47
2016-06-27T03:23:19.921Z,1012.46
2016-06-27T03:24:19.943Z,1012.43
2016-06-27T03:25:19.962Z,1012.45
2016-06-27T03:26:19.993Z,1012.52
2016-06-27T03:27:20.022Z,1012.55
2016-06-27T03:29:20.069Z,1012.53
2016-06-27T03:30:20.092Z,1012.48
2016-06-27T03:31:20.125Z,1012.53
2016-06-27T03:32:20.140Z,1012.55
2016-06-27T03:33:20.166Z,1012.52
2016-06-27T03:34:20.192Z,1012.58
2016-06-27T03:35:20.218Z,1012.6
2016-06-27T03:36:20.245Z,1012.57
2016-06-27T03:37:20.263Z,1012.64
2016-06-27T03:38:20.287Z,1012.63
2016-06-27T03:39:20.314Z,1012.64
2016-06-27T03:40:20.336Z,1012.63
2016-06-27T03:41:20.359Z,1012.65
2016-06-27T03:42:20.390Z,1012.61
2016-06-27T03:43:20.409Z,1012.63
2016-06-27T03:45:20.463Z,1012.71
2016-06-27T03:46:20.485Z,1012.69
2016-06-27T03:47:20.511Z,1012.7
2016-06-27T03:48:20.538Z,1012.72
2016-06-27T03:49:20.558Z,1012.73
2016-06-27T03:50:20.588Z,1012.76
2016-06-27T03:51:20.612Z,1012.75
2016-06-27T03:52:20.634Z,1012.79
2016-06-27T03:53:20.663Z,1012.79
2016-06-27T03:54:20.687Z,1012.78
2016-06-27T03:55:20.713Z,1012.78
2016-06-27T03:56:20.735Z,1012.75
2016-06-27T03:57:20.769Z,1012.77
2016-06-27T03:58:20.787Z,1012.76
2016-06-27T04:00:20.836Z,1012.84
2016-06-27T04:01:20.872Z,1012.89
2016-06-27T04:02:20.919Z,1012.89
2016-06-27T04:03:20.909Z,1012.94
2016-06-27T04:04:20.941Z,1012.96
2016-06-27T04:05:20.961Z,1012.93
2016-06-27T04:06:21.013Z,1012.94
2016-06-27T04:07:21.010Z,1013
2016-06-27T04:08:21.039Z,1012.99
2016-06-27T04:09:21.061Z,1013.01
2016-06-27T04:10:21.089Z,1013.04
2016-06-27T04:11:21.123Z,1013.1
2016-06-27T04:12:21.133Z,1013.14
2016-06-27T04:13:21.165Z,1013.14
2016-06-27T04:14:21.186Z,1013.61
2016-06-27T04:15:21.209Z,1013.59
2016-06-27T04:16:21.236Z,1013.54
2016-06-27T04:17:21.259Z,1013.57
2016-06-27T04:18:21.285Z,1013.56
2016-06-27T04:19:21.308Z,1013.49
2016-06-27T04:20:21.333Z,1013.48
2016-06-27T04:21:21.363Z,1013.2
2016-06-27T04:22:21.391Z,1013.15
2016-06-27T04:23:21.417Z,1013.22
2016-06-27T04:24:21.445Z,1013.37
2016-06-27T04:25:21.474Z,1013.52
2016-06-27T04:26:21.494Z,1013.54
2016-06-27T04:27:21.526Z,1013.51
2016-06-27T04:28:21.554Z,1013.47
2016-06-27T04:29:21.578Z,1013.53
2016-06-27T04:30:21.606Z,1013.51
2016-06-27T04:32:21.661Z,1013.41
2016-06-27T04:33:21.688Z,1013.32
2016-06-27T04:34:21.723Z,1013.19
2016-06-27T04:35:21.745Z,1013.06
2016-06-27T04:36:21.776Z,1012.95
2016-06-27T04:37:21.802Z,1012.91
2016-06-27T04:38:21.829Z,1013.35
2016-06-27T04:39:21.858Z,1013.42
2016-06-27T04:40:21.884Z,1013.03
2016-06-27T04:41:21.913Z,1012.99
2016-06-27T04:42:21.945Z,1012.99
2016-06-27T04:43:21.970Z,1013.02
2016-06-27T04:44:22.012Z,1013.02
2016-06-27T04:45:22.023Z,1013.08
2016-06-27T04:46:22.058Z,1013.06
2016-06-27T04:48:22.117Z,1013.06
2016-06-27T04:49:22.136Z,1013.04
2016-06-27T04:50:22.169Z,1013.03
2016-06-27T04:51:22.192Z,1013.08
2016-06-27T04:52:22.223Z,1013.16
2016-06-27T04:53:22.250Z,1013.13
2016-06-27T04:54:22.281Z,1013.13
2016-06-27T04:55:22.309Z,1013.14
2016-06-27T04:56:22.331Z,1013.14
2016-06-27T04:57:22.360Z,1013.16
2016-06-27T04:58:22.390Z,1013.17
2016-06-27T04:59:22.412Z,1013.14
2016-06-27T05:00:22.442Z,1013.2
2016-06-27T05:01:22.469Z,1013.23
2016-06-27T05:02:22.499Z,1013.2
2016-06-27T05:04:22.552Z,1013.2
2016-06-27T05:05:22.579Z,1013.22
2016-06-27T05:06:22.606Z,1013.17
2016-06-27T05:07:22.633Z,1013.15
2016-06-27T05:08:22.661Z,1013.2
2016-06-27T05:09:22.685Z,1013.15
2016-06-27T05:10:22.716Z,1013.14
2016-06-27T05:11:22.738Z,1013.13
2016-06-27T05:12:22.770Z,1013.12
2016-06-27T05:13:22.799Z,1013.12
2016-06-27T05:14:22.823Z,1013.13
2016-06-27T05:15:22.849Z,1013.15
2016-06-27T05:16:22.880Z,1013.12
2016-06-27T05:17:22.903Z,1013.17
2016-06-27T05:18:22.928Z,1013.2
2016-06-27T05:20:22.984Z,1013.18
2016-06-27T05:21:23.013Z,1013.19
2016-06-27T05:22:23.041Z,1013.3
2016-06-27T05:23:23.063Z,1013.31
2016-06-27T05:24:23.093Z,1013.18
2016-06-27T05:25:23.121Z,1013.14
2016-06-27T05:26:23.151Z,1013.11
2016-06-27T05:27:23.171Z,1013.13
2016-06-27T05:28:23.228Z,1013.15
2016-06-27T05:29:23.234Z,1013.18
2016-06-27T05:30:23.262Z,1013.2
2016-06-27T05:31:23.285Z,1013.18
2016-06-27T05:32:23.315Z,1013.23
2016-06-27T05:33:23.337Z,1013.25
2016-06-27T05:35:23.394Z,1013.27
2016-06-27T05:36:23.420Z,1013.25
2016-06-27T05:37:23.448Z,1013.21
2016-06-27T05:38:23.472Z,1013.21
2016-06-27T05:39:23.503Z,1013.23
2016-06-27T05:40:23.531Z,1013.22
2016-06-27T05:41:23.552Z,1013.18
2016-06-27T05:42:23.588Z,1013.23
2016-06-27T05:43:23.611Z,1013.25
2016-06-27T05:44:23.643Z,1013.26
2016-06-27T05:45:23.660Z,1013.26
2016-06-27T05:46:23.693Z,1013.28
2016-06-27T05:47:23.718Z,1013.27
2016-06-27T05:48:23.742Z,1013.35
2016-06-27T05:49:23.770Z,1013.32
2016-06-27T05:50:23.800Z,1013.34
2016-06-27T05:51:23.821Z,1013.3
2016-06-27T05:52:23.849Z,1013.26
2016-06-27T05:53:23.877Z,1013.23
2016-06-27T05:54:23.906Z,1013.19
2016-06-27T05:55:23.930Z,1013.19
2016-06-27T05:56:23.957Z,1013.16
2016-06-27T05:57:23.984Z,1013.18
2016-06-27T05:58:24.007Z,1013.15
2016-06-27T05:59:24.035Z,1013.18
2016-06-27T06:00:24.062Z,1013.23
2016-06-27T06:01:24.091Z,1013.22
2016-06-27T06:02:24.115Z,1013.18
2016-06-27T06:03:24.146Z,1013.2
2016-06-27T06:04:24.171Z,1013.14
2016-06-27T06:05:24.196Z,1013.18
2016-06-27T06:07:24.248Z,1013.19
2016-06-27T06:08:24.281Z,1013.2
2016-06-27T06:09:24.301Z,1013.21
2016-06-27T06:10:24.333Z,1013.23
2016-06-27T06:11:24.356Z,1013.25
2016-06-27T06:12:24.385Z,1013.26
2016-06-27T06:13:24.410Z,1013.27
2016-06-27T06:14:24.440Z,1013.28
2016-06-27T06:15:24.462Z,1013.27
2016-06-27T06:16:24.488Z,1013.26
2016-06-27T06:17:24.517Z,1013.24
2016-06-27T06:18:24.543Z,1013.26
2016-06-27T06:19:24.570Z,1013.31
2016-06-27T06:20:24.604Z,1013.31
2016-06-27T06:21:24.619Z,1013.35
2016-06-27T06:23:24.671Z,1013.39
2016-06-27T06:24:24.698Z,1013.38
2016-06-27T06:25:24.728Z,1013.38
2016-06-27T06:26:24.758Z,1013.39
2016-06-27T06:27:24.778Z,1013.42
2016-06-27T06:28:24.813Z,1013.43
2016-06-27T06:29:24.835Z,1013.46
2016-06-27T06:30:24.857Z,1013.52
2016-06-27T06:31:24.884Z,1013.54
2016-06-27T06:32:24.910Z,1013.54
2016-06-27T06:33:24.939Z,1013.56
2016-06-27T06:34:24.970Z,1013.57
2016-06-27T06:35:24.998Z,1013.57
2016-06-27T06:36:25.023Z,1013.58
2016-06-27T06:37:25.053Z,1013.59
2016-06-27T06:39:25.099Z,1013.6
2016-06-27T06:40:25.125Z,1013.68
2016-06-27T06:41:25.159Z,1013.68
2016-06-27T06:42:25.201Z,1013.71
2016-06-27T06:43:25.208Z,1013.68
2016-06-27T06:44:25.234Z,1013.72
2016-06-27T06:45:25.263Z,1013.71
2016-06-27T06:46:25.294Z,1013.68
2016-06-27T06:47:25.309Z,1013.65
2016-06-27T06:48:25.341Z,1013.66
2016-06-27T06:49:25.369Z,1013.63
2016-06-27T06:50:25.394Z,1013.59
2016-06-27T06:51:25.423Z,1013.64
2016-06-27T06:52:25.452Z,1013.61
2016-06-27T06:53:25.475Z,1013.63
2016-06-27T06:55:25.532Z,1013.65
2016-06-27T06:56:25.560Z,1013.69
2016-06-27T06:57:25.580Z,1013.73
2016-06-27T06:58:25.613Z,1013.68
2016-06-27T06:59:25.638Z,1013.68
2016-06-27T07:00:25.665Z,1013.74
2016-06-27T07:01:25.694Z,1013.77
2016-06-27T07:02:25.719Z,1013.82
2016-06-27T07:03:25.751Z,1013.79
2016-06-27T07:04:25.775Z,1013.8
2016-06-27T07:05:25.801Z,1013.78
2016-06-27T07:06:25.831Z,1013.78
2016-06-27T07:07:25.854Z,1013.79
2016-06-27T07:08:25.883Z,1013.8
2016-06-27T07:10:25.939Z,1013.83
2016-06-27T07:11:25.968Z,1013.86
2016-06-27T07:12:25.994Z,1013.88
2016-06-27T07:13:26.022Z,1013.9
2016-06-27T07:14:26.068Z,1013.93
2016-06-27T07:15:26.073Z,1013.93
2016-06-27T07:16:26.102Z,1013.96
2016-06-27T07:17:26.137Z,1013.96
2016-06-27T07:18:26.156Z,1013.98
2016-06-27T07:19:26.186Z,1013.98
2016-06-27T07:20:26.214Z,1013.96
2016-06-27T07:21:26.242Z,1013.98
2016-06-27T07:22:26.266Z,1014.04
2016-06-27T07:23:26.296Z,1014
2016-06-27T07:24:26.320Z,1014.08
2016-06-27T07:25:26.351Z,1014.18
2016-06-27T07:26:26.373Z,1014.24
2016-06-27T07:27:26.400Z,1014.26
2016-06-27T07:28:26.432Z,1014.23
2016-06-27T07:29:26.458Z,1014.29
2016-06-27T07:30:26.493Z,1014.4
2016-06-27T07:31:26.509Z,1014.22
2016-06-27T07:32:26.539Z,1014.38
2016-06-27T07:33:26.566Z,1014.35
2016-06-27T07:34:26.593Z,1014.56
2016-06-27T07:35:26.622Z,1014.63
2016-06-27T07:36:26.655Z,1014.73
2016-06-27T07:37:26.677Z,1014.63
2016-06-27T07:38:26.705Z,1014.78
2016-06-27T07:39:26.739Z,1014.86
2016-06-27T07:40:26.762Z,1014.79
2016-06-27T07:42:26.831Z,1014.98
2016-06-27T07:43:26.846Z,1015.28
2016-06-27T07:44:26.879Z,1014.82
2016-06-27T07:45:26.927Z,1014.44
2016-06-27T07:46:26.946Z,1014.94
2016-06-27T07:47:26.965Z,1015.06
2016-06-27T07:48:26.993Z,1014.97
2016-06-27T07:49:27.046Z,1014.92
2016-06-27T07:50:27.054Z,1015.05
2016-06-27T07:51:27.082Z,1014.95
2016-06-27T07:52:27.110Z,1014.8
2016-06-27T07:53:27.147Z,1014.9
2016-06-27T07:54:27.172Z,1015
2016-06-27T07:55:27.205Z,1014.97
2016-06-27T07:56:27.238Z,1015.02
2016-06-27T07:58:27.292Z,1014.57
2016-06-27T07:59:27.325Z,1014.5
2016-06-27T08:00:27.353Z,1014.49
2016-06-27T08:01:27.402Z,1014.47
2016-06-27T08:02:27.417Z,1014.52
2016-06-27T08:03:27.452Z,1014.52
2016-06-27T08:04:27.479Z,1014.5
2016-06-27T08:05:27.512Z,1014.53
2016-06-27T08:06:27.555Z,1014.54
2016-06-27T08:07:27.575Z,1014.53
2016-06-27T08:08:27.604Z,1014.42
2016-06-27T08:09:27.639Z,1014.23
2016-06-27T08:10:27.668Z,1014.28
2016-06-27T08:11:27.700Z,1014.3
2016-06-27T08:12:27.728Z,1014.33
2016-06-27T08:14:27.794Z,1014.43
2016-06-27T08:15:27.837Z,1014.29
2016-06-27T08:16:27.859Z,1014.35
2016-06-27T08:17:27.896Z,1014.4
2016-06-27T08:18:27.924Z,1014.31
2016-06-27T08:19:27.957Z,1014.43
2016-06-27T08:20:27.987Z,1014.41
2016-06-27T08:21:28.022Z,1014.29
2016-06-27T08:22:28.054Z,1014.3
2016-06-27T08:23:28.094Z,1014.44
2016-06-27T08:24:28.115Z,1014.34
2016-06-27T08:25:28.153Z,1014.36
2016-06-27T08:26:28.183Z,1014.59
2016-06-27T08:27:28.213Z,1014.34
2016-06-27T08:28:28.247Z,1014.37
2016-06-27T08:30:28.315Z,1014.4
2016-06-27T08:31:28.356Z,1014.33
2016-06-27T08:32:28.378Z,1014.4
2016-06-27T08:33:28.411Z,1014.35
2016-06-27T08:34:28.443Z,1014.38
2016-06-27T08:35:28.483Z,1014.36
2016-06-27T08:36:28.507Z,1014.44
2016-06-27T08:37:28.540Z,1014.44
2016-06-27T08:38:28.583Z,1014.54
2016-06-27T08:39:28.615Z,1014.51
2016-06-27T08:40:28.635Z,1014.18
2016-06-27T08:41:28.671Z,1014.27
2016-06-27T08:42:28.700Z,1014.35
2016-06-27T08:43:28.745Z,1014.05
2016-06-27T08:45:28.800Z,1014.18
2016-06-27T08:46:28.835Z,1014.21
2016-06-27T08:47:28.869Z,1014.19
2016-06-27T08:48:28.905Z,1014.14
2016-06-27T08:49:28.948Z,1014.31
2016-06-27T08:50:28.964Z,1014.16
2016-06-27T08:51:28.996Z,1014.07
2016-06-27T08:52:29.027Z,1014.06
2016-06-27T08:53:29.066Z,1014.34
2016-06-27T08:54:29.088Z,1014.09
2016-06-27T08:55:29.134Z,1014.05
2016-06-27T08:56:29.165Z,1014.23
2016-06-27T08:57:29.187Z,1014.21
2016-06-27T08:58:29.222Z,1014.18
2016-06-27T08:59:29.252Z,1014.06
2016-06-27T09:00:29.301Z,1014.07
2016-06-27T09:01:29.320Z,1014.05
2016-06-27T09:02:29.350Z,1014.04
2016-06-27T09:03:29.385Z,1013.96
2016-06-27T09:04:29.413Z,1013.94
2016-06-27T09:05:29.447Z,1013.89
2016-06-27T09:06:29.479Z,1013.88
2016-06-27T09:07:29.511Z,1013.89
2016-06-27T09:08:29.540Z,1013.93
2016-06-27T09:09:29.578Z,1013.97
2016-06-27T09:10:29.614Z,1013.98
2016-06-27T09:11:29.638Z,1014
2016-06-27T09:12:29.682Z,1013.93
2016-06-27T09:13:29.707Z,1013.88
2016-06-27T09:14:29.739Z,1013.85
2016-06-27T09:15:29.771Z,1013.86
2016-06-27T09:17:29.835Z,1013.9
2016-06-27T09:18:29.870Z,1013.82
2016-06-27T09:19:29.907Z,1013.89
2016-06-27T09:20:29.935Z,1013.88
2016-06-27T09:21:29.966Z,1013.87
2016-06-27T09:22:30.004Z,1013.91
2016-06-27T09:23:30.034Z,1013.87
2016-06-27T09:24:30.064Z,1013.92
2016-06-27T09:25:30.100Z,1013.87
2016-06-27T09:26:30.127Z,1013.89
2016-06-27T09:27:30.161Z,1013.85
2016-06-27T09:28:30.195Z,1013.86
2016-06-27T09:29:30.226Z,1013.89
2016-06-27T09:30:30.257Z,1013.86
2016-06-27T09:31:30.292Z,1013.85
2016-06-27T09:33:30.359Z,1013.87
2016-06-27T09:34:30.386Z,1013.87
2016-06-27T09:35:30.421Z,1013.87
2016-06-27T09:36:30.450Z,1013.83
2016-06-27T09:37:30.482Z,1013.82
2016-06-27T09:38:30.539Z,1013.72
2016-06-27T09:39:30.548Z,1013.81
2016-06-27T09:40:30.580Z,1013.77
2016-06-27T09:41:30.610Z,1013.81
2016-06-27T09:42:30.640Z,1013.86
2016-06-27T09:43:30.673Z,1013.79
2016-06-27T09:44:30.714Z,1013.81
2016-06-27T09:45:30.739Z,1013.77
2016-06-27T09:46:30.767Z,1013.71
2016-06-27T09:47:30.799Z,1013.8
2016-06-27T09:49:30.870Z,1013.76
2016-06-27T09:50:30.897Z,1013.82
2016-06-27T09:51:30.925Z,1013.84
2016-06-27T09:52:30.956Z,1013.85
2016-06-27T09:53:30.993Z,1013.76
2016-06-27T09:54:31.021Z,1013.75
2016-06-27T09:55:31.058Z,1013.76
2016-06-27T09:56:31.086Z,1013.7
2016-06-27T09:57:31.119Z,1013.67
2016-06-27T09:58:31.149Z,1013.62
2016-06-27T09:59:31.185Z,1013.66
2016-06-27T10:00:31.214Z,1013.67
2016-06-27T10:01:31.245Z,1013.67
2016-06-27T10:02:31.281Z,1013.62
2016-06-27T10:03:31.310Z,1013.66
2016-06-27T10:05:31.371Z,1013.68
2016-06-27T10:06:31.410Z,1013.64
2016-06-27T10:07:31.438Z,1013.62
2016-06-27T10:08:31.482Z,1013.59
2016-06-27T10:09:31.497Z,1013.6
2016-06-27T10:10:31.533Z,1013.57
2016-06-27T10:11:31.559Z,1013.57
2016-06-27T10:12:31.598Z,1013.51
2016-06-27T10:13:31.624Z,1013.61
2016-06-27T10:14:31.654Z,1013.62
2016-06-27T10:15:31.691Z,1013.56
2016-06-27T10:16:31.717Z,1013.59
2016-06-27T10:17:31.756Z,1013.59
2016-06-27T10:18:31.790Z,1013.63
2016-06-27T10:20:31.846Z,1013.58
2016-06-27T10:21:31.876Z,1013.5
2016-06-27T10:22:31.930Z,1013.46
2016-06-27T10:23:31.952Z,1013.46
2016-06-27T10:24:31.971Z,1013.47
2016-06-27T10:25:31.998Z,1013.41
2016-06-27T10:26:32.031Z,1013.41
2016-06-27T10:27:32.065Z,1013.39
2016-06-27T10:28:32.094Z,1013.4
2016-06-27T10:29:32.123Z,1013.42
2016-06-27T10:30:32.159Z,1013.39
2016-06-27T10:31:32.188Z,1013.46
2016-06-27T10:32:32.218Z,1013.44
2016-06-27T10:33:32.263Z,1013.43
2016-06-27T10:34:32.285Z,1013.4
2016-06-27T10:35:32.311Z,1013.34
2016-06-27T10:36:32.342Z,1013.37
2016-06-27T10:37:32.375Z,1013.36
2016-06-27T10:38:32.414Z,1013.41
2016-06-27T10:39:32.433Z,1013.44
2016-06-27T10:40:32.469Z,1013.45
2016-06-27T10:41:32.499Z,1013.43
2016-06-27T10:42:32.528Z,1013.4
2016-06-27T10:43:32.559Z,1013.51
2016-06-27T10:44:32.588Z,1013.45
2016-06-27T10:45:32.619Z,1013.42
2016-06-27T10:46:32.646Z,1013.37
2016-06-27T10:47:32.680Z,1013.36
2016-06-27T10:48:32.719Z,1013.35
2016-06-27T10:49:32.739Z,1013.31
2016-06-27T10:50:32.832Z,1013.4
2016-06-27T10:52:32.831Z,1013.26
2016-06-27T10:53:32.866Z,1013.24
2016-06-27T10:54:32.890Z,1013.24
2016-06-27T10:55:32.925Z,1013.22
2016-06-27T10:56:32.950Z,1013.2
2016-06-27T10:57:32.982Z,1013.19
2016-06-27T10:58:33.014Z,1013.19
2016-06-27T10:59:33.047Z,1013.21
2016-06-27T11:00:33.071Z,1013.15
2016-06-27T11:01:33.107Z,1013.21
2016-06-27T11:02:33.135Z,1013.13
2016-06-27T11:03:33.163Z,1013.16
2016-06-27T11:04:33.196Z,1013.16
2016-06-27T11:05:33.222Z,1013.16
2016-06-27T11:06:33.253Z,1013.18
2016-06-27T11:08:33.315Z,1013.12
2016-06-27T11:09:33.344Z,1013.18
2016-06-27T11:10:33.375Z,1013.17
2016-06-27T11:11:33.406Z,1013.16
2016-06-27T11:12:33.432Z,1013.17
2016-06-27T11:13:33.461Z,1013.21
2016-06-27T11:14:33.498Z,1013.23
2016-06-27T11:15:33.528Z,1013.23
2016-06-27T11:16:33.555Z,1013.15
2016-06-27T11:17:33.585Z,1013.15
2016-06-27T11:18:33.611Z,1013.13
2016-06-27T11:19:33.650Z,1013.1
2016-06-27T11:20:33.678Z,1013.2
2016-06-27T11:21:33.704Z,1013.16
2016-06-27T11:22:33.736Z,1013.09
2016-06-27T11:24:33.791Z,1013.15
2016-06-27T11:25:33.825Z,1013.08
2016-06-27T11:26:33.855Z,1013.07
2016-06-27T11:27:33.883Z,1013.07
2016-06-27T11:28:33.921Z,1013.05
2016-06-27T11:29:33.941Z,1013.06
2016-06-27T11:30:33.976Z,1013.09
2016-06-27T11:31:34.002Z,1013.09
2016-06-27T11:32:34.053Z,1013.09
2016-06-27T11:33:34.062Z,1013.05
2016-06-27T11:34:34.100Z,1013.05
2016-06-27T11:35:34.122Z,1013.09
2016-06-27T11:36:34.150Z,1013.12
2016-06-27T11:37:34.183Z,1013.12
2016-06-27T11:38:34.209Z,1013.1
2016-06-27T11:40:34.271Z,1013.04
2016-06-27T11:41:34.301Z,1013.05
2016-06-27T11:42:34.324Z,1013.07
2016-06-27T11:43:34.358Z,1013.06
2016-06-27T11:44:34.386Z,1013.17
2016-06-27T11:45:34.423Z,1013.07
2016-06-27T11:46:34.453Z,1013.08
2016-06-27T11:47:34.481Z,1013.04
2016-06-27T11:48:34.510Z,1013.05
2016-06-27T11:49:34.539Z,1013.05
2016-06-27T11:50:34.567Z,1013.05
2016-06-27T11:51:34.594Z,1013.02
2016-06-27T11:52:34.629Z,1012.96
2016-06-27T11:53:34.658Z,1012.89
2016-06-27T11:55:34.717Z,1012.91
2016-06-27T11:56:34.738Z,1012.85
2016-06-27T11:57:34.773Z,1012.82
2016-06-27T11:58:34.801Z,1012.84
2016-06-27T11:59:34.837Z,1012.81
2016-06-27T12:00:34.862Z,1012.88
2016-06-27T12:01:34.896Z,1012.91
2016-06-27T12:02:34.928Z,1012.87
2016-06-27T12:03:34.953Z,1012.95
2016-06-27T12:04:34.982Z,1012.91
2016-06-27T12:05:35.014Z,1012.83
2016-06-27T12:06:35.043Z,1012.8
2016-06-27T12:07:35.071Z,1012.88
2016-06-27T12:08:35.099Z,1012.86
2016-06-27T12:09:35.126Z,1012.85
2016-06-27T12:10:35.156Z,1012.83
2016-06-27T12:11:35.187Z,1012.79
2016-06-27T12:12:35.214Z,1012.84
2016-06-27T12:13:35.281Z,1012.87
2016-06-27T12:14:35.276Z,1012.86
2016-06-27T12:15:35.302Z,1012.84
2016-06-27T12:16:35.333Z,1012.83
2016-06-27T12:17:35.363Z,1012.86
2016-06-27T12:18:35.389Z,1012.82
2016-06-27T12:19:35.426Z,1012.89
2016-06-27T12:20:35.461Z,1012.84
2016-06-27T12:21:35.479Z,1012.79
2016-06-27T12:22:35.506Z,1012.78
2016-06-27T12:23:35.536Z,1012.83
2016-06-27T12:24:35.564Z,1012.82
2016-06-27T12:25:35.602Z,1012.83
2016-06-27T12:27:35.656Z,1012.82
2016-06-27T12:28:35.684Z,1012.75
2016-06-27T12:29:35.714Z,1012.8
2016-06-27T12:30:35.766Z,1012.81
2016-06-27T12:31:35.787Z,1012.76
2016-06-27T12:32:35.798Z,1012.75
2016-06-27T12:33:35.832Z,1012.79
2016-06-27T12:34:35.855Z,1012.79
2016-06-27T12:35:35.885Z,1012.83
2016-06-27T12:36:35.913Z,1012.8
2016-06-27T12:37:35.942Z,1012.83
2016-06-27T12:38:35.979Z,1012.76
2016-06-27T12:39:36.010Z,1012.76
2016-06-27T12:40:36.052Z,1012.73
2016-06-27T12:41:36.076Z,1012.76
2016-06-27T12:43:36.122Z,1012.75
2016-06-27T12:44:36.151Z,1012.71
2016-06-27T12:45:36.184Z,1012.69
2016-06-27T12:46:36.217Z,1012.64
2016-06-27T12:47:36.262Z,1012.67
2016-06-27T12:48:36.271Z,1012.68
2016-06-27T12:49:36.351Z,1012.68